Time;durP1;ratioP1;P1;durP2;ratioP2;P2;SDS_P1;SDS_P2;PMS_P1;PMS_P2;Temp;Humidity;BMP_temperature;BMP_pressure;BME280_temperature;BME280_humidity;BME280_pressure;Samples;Min_cycle;Max_cycle;Signal;HPM_P1;HPM_P2
2024/01/30 00:01:48;;;;;;;18.40;10.48;;;;;;;;;;5245785;22;20062;-79
2024/01/30 00:03:50;;;;;;;22.60;11.63;;;;;;;;;;5245842;22;20019;-79
2024/01/30 00:05:52;;;;;;;19.80;10.75;;;;;;;;;;5218912;22;20045;-79
2024/01/30 00:07:53;;;;;;;21.45;11.13;;;;;;;;;;5245475;22;20022;-79
2024/01/30 00:09:55;;;;;;;20.38;11.40;;;;;;;;;;5244561;22;20074;-79
2024/01/30 00:11:57;;;;;;;21.48;11.68;;;;;;;;;;5217975;22;20065;-79
2024/01/30 00:13:59;;;;;;;25.52;11.60;;;;;;;;;;5246173;22;20117;-79
2024/01/30 00:16:00;;;;;;;17.38;10.60;;;;;;;;;;5246017;22;20333;-79
2024/01/30 00:18:01;;;;;;;19.77;11.13;;;;;;;;;;5245859;22;20105;-79
2024/01/30 00:20:08;;;;;;;21.48;11.68;;;;;;;;;;5245699;22;20011;-79
2024/01/30 00:22:09;;;;;;;21.20;10.57;;;;;;;;;;5245972;22;20468;-79
2024/01/30 00:24:10;;;;;;;21.98;11.43;;;;;;;;;;5245035;22;20093;-79
2024/01/30 00:26:12;;;;;;;22.00;12.02;;;;;;;;;;5192728;22;20023;-79
2024/01/30 00:28:13;;;;;;;21.45;11.93;;;;;;;;;;5246064;22;20015;-79
2024/01/30 00:30:14;;;;;;;25.40;12.13;;;;;;;;;;5245473;22;20011;-79
2024/01/30 00:32:15;;;;;;;23.25;10.82;;;;;;;;;;5246008;22;20090;-79
2024/01/30 00:34:16;;;;;;;24.33;11.40;;;;;;;;;;5245019;22;20021;-79
2024/01/30 00:36:18;;;;;;;19.73;11.20;;;;;;;;;;5245847;22;20083;-79
2024/01/30 00:38:20;;;;;;;19.90;11.50;;;;;;;;;;5245696;22;20018;-79
2024/01/30 00:40:22;;;;;;;23.38;11.38;;;;;;;;;;5244971;22;20046;-79
2024/01/30 00:42:25;;;;;;;21.23;11.52;;;;;;;;;;5218614;22;20030;-79
2024/01/30 00:44:26;;;;;;;20.40;10.90;;;;;;;;;;5217705;22;20015;-79
2024/01/30 00:46:27;;;;;;;20.75;11.10;;;;;;;;;;5245523;22;20509;-79
2024/01/30 00:48:28;;;;;;;23.33;11.52;;;;;;;;;;5245419;22;20014;-79
2024/01/30 00:50:29;;;;;;;22.17;11.77;;;;;;;;;;5217723;22;20015;-79
2024/01/30 00:52:32;;;;;;;20.65;11.10;;;;;;;;;;5246115;22;20345;-79
2024/01/30 00:54:33;;;;;;;22.58;12.65;;;;;;;;;;5245422;22;20014;-79
2024/01/30 00:56:34;;;;;;;18.88;11.80;;;;;;;;;;5246128;22;20307;-80
2024/01/30 00:58:36;;;;;;;22.02;12.10;;;;;;;;;;5245797;22;20089;-79
2024/01/30 01:00:37;;;;;;;19.55;12.10;;;;;;;;;;5245627;22;20497;-79
2024/01/30 01:02:39;;;;;;;23.02;11.55;;;;;;;;;;5218573;22;20438;-79
2024/01/30 01:04:40;;;;;;;23.10;13.02;;;;;;;;;;5245651;22;20026;-79
2024/01/30 01:06:43;;;;;;;20.13;12.10;;;;;;;;;;5219382;22;20508;-79
2024/01/30 01:08:44;;;;;;;22.80;12.32;;;;;;;;;;5247902;22;20393;-79
2024/01/30 01:10:46;;;;;;;26.88;12.23;;;;;;;;;;5247710;22;20078;-79
2024/01/30 01:12:47;;;;;;;21.77;11.93;;;;;;;;;;5246656;22;20345;-80
2024/01/30 01:14:48;;;;;;;22.00;12.43;;;;;;;;;;5220584;22;20094;-81
2024/01/30 01:16:49;;;;;;;22.92;12.63;;;;;;;;;;5248471;22;20573;-81
2024/01/30 01:18:50;;;;;;;23.10;12.00;;;;;;;;;;5247849;22;20026;-81
2024/01/30 01:20:51;;;;;;;21.80;12.13;;;;;;;;;;5248265;22;20018;-81
2024/01/30 01:22:53;;;;;;;21.60;12.00;;;;;;;;;;5221004;22;20023;-81
2024/01/30 01:24:56;;;;;;;26.13;12.60;;;;;;;;;;5248328;22;20023;-81
2024/01/30 01:26:57;;;;;;;24.83;12.38;;;;;;;;;;5248347;22;20468;-81
2024/01/30 01:28:58;;;;;;;22.30;12.25;;;;;;;;;;5248569;22;20533;-81
2024/01/30 01:31:04;;;;;;;22.98;11.68;;;;;;;;;;5248198;22;20072;-81
2024/01/30 01:33:06;;;;;;;24.83;11.55;;;;;;;;;;5248803;22;20011;-81
2024/01/30 01:35:07;;;;;;;27.50;12.10;;;;;;;;;;5247795;22;20019;-81
2024/01/30 01:37:08;;;;;;;28.13;13.13;;;;;;;;;;5219390;22;20174;-81
2024/01/30 01:39:10;;;;;;;21.52;12.07;;;;;;;;;;5248556;22;20642;-81
2024/01/30 01:41:11;;;;;;;22.00;12.95;;;;;;;;;;5248194;22;20015;-81
2024/01/30 01:43:12;;;;;;;25.15;12.75;;;;;;;;;;5248887;22;20015;-81
2024/01/30 01:45:13;;;;;;;22.52;11.60;;;;;;;;;;5247457;22;20076;-81
2024/01/30 01:47:15;;;;;;;27.42;13.60;;;;;;;;;;5248203;22;20026;-81
2024/01/30 01:49:17;;;;;;;22.75;12.43;;;;;;;;;;5248067;22;20460;-81
2024/01/30 01:51:18;;;;;;;23.40;12.43;;;;;;;;;;5247637;22;20042;-81
2024/01/30 01:53:19;;;;;;;22.70;12.02;;;;;;;;;;5247867;22;20011;-82
2024/01/30 01:55:22;;;;;;;22.10;12.80;;;;;;;;;;5220266;22;20068;-82
2024/01/30 01:57:23;;;;;;;25.55;12.60;;;;;;;;;;5246937;22;20441;-81
2024/01/30 01:59:24;;;;;;;23.83;11.27;;;;;;;;;;5247040;22;20026;-82
2024/01/30 02:01:25;;;;;;;22.83;12.77;;;;;;;;;;5246384;22;20043;-82
2024/01/30 02:03:26;;;;;;;21.00;11.70;;;;;;;;;;5246806;22;20097;-82
2024/01/30 02:05:29;;;;;;;24.77;12.30;;;;;;;;;;5247378;22;20345;-82
2024/01/30 02:07:31;;;;;;;21.25;11.27;;;;;;;;;;5247136;22;20337;-82
2024/01/30 02:09:33;;;;;;;19.50;11.35;;;;;;;;;;5247051;22;20376;-82
2024/01/30 02:11:34;;;;;;;21.83;11.88;;;;;;;;;;5247023;22;20038;-82
2024/01/30 02:13:35;;;;;;;20.77;11.77;;;;;;;;;;5246873;22;20011;-81
2024/01/30 02:15:36;;;;;;;26.27;13.18;;;;;;;;;;5246895;22;20019;-82
2024/01/30 02:17:37;;;;;;;22.85;13.10;;;;;;;;;;5246224;22;20364;-82
2024/01/30 02:19:38;;;;;;;29.33;12.13;;;;;;;;;;5246815;22;20053;-82
2024/01/30 02:21:39;;;;;;;24.23;12.00;;;;;;;;;;5220253;22;20064;-82
2024/01/30 02:23:41;;;;;;;22.77;12.80;;;;;;;;;;5247008;22;20068;-82
2024/01/30 02:25:47;;;;;;;25.50;12.13;;;;;;;;;;5246746;22;20014;-82
2024/01/30 02:27:49;;;;;;;20.95;12.10;;;;;;;;;;5247576;22;20019;-82
2024/01/30 02:29:50;;;;;;;23.95;12.43;;;;;;;;;;5247632;22;20072;-82
2024/01/30 02:31:52;;;;;;;23.50;12.52;;;;;;;;;;5220122;22;20011;-82
2024/01/30 02:33:54;;;;;;;24.70;12.73;;;;;;;;;;5220380;22;20023;-82
2024/01/30 02:35:55;;;;;;;25.60;12.68;;;;;;;;;;5247183;22;20018;-82
2024/01/30 02:37:57;;;;;;;20.88;11.82;;;;;;;;;;5246430;22;20018;-82
2024/01/30 02:39:59;;;;;;;24.30;12.57;;;;;;;;;;5246639;22;20011;-82
2024/01/30 02:42:00;;;;;;;23.33;12.02;;;;;;;;;;5246915;22;20377;-82
2024/01/30 02:44:01;;;;;;;19.60;11.38;;;;;;;;;;5246538;22;20022;-82
2024/01/30 02:46:02;;;;;;;18.98;11.95;;;;;;;;;;5246123;22;20433;-80
2024/01/30 02:48:04;;;;;;;20.08;10.68;;;;;;;;;;5245876;22;20018;-82
2024/01/30 02:50:05;;;;;;;19.88;11.77;;;;;;;;;;5246406;22;20030;-82
2024/01/30 02:52:06;;;;;;;20.85;10.90;;;;;;;;;;5246663;22;20499;-81
2024/01/30 02:54:07;;;;;;;20.98;11.65;;;;;;;;;;5247051;22;20023;-82
2024/01/30 02:56:09;;;;;;;24.38;11.93;;;;;;;;;;5246247;22;20015;-81
2024/01/30 02:58:10;;;;;;;21.58;11.85;;;;;;;;;;5247091;22;20014;-82
2024/01/30 03:00:12;;;;;;;22.90;11.88;;;;;;;;;;5246725;22;20456;-82
2024/01/30 03:02:13;;;;;;;21.63;11.13;;;;;;;;;;5245896;22;20015;-82
2024/01/30 03:04:14;;;;;;;21.92;11.23;;;;;;;;;;5246639;22;20484;-81
2024/01/30 03:06:17;;;;;;;21.35;11.50;;;;;;;;;;5246554;22;20019;-81
2024/01/30 03:08:18;;;;;;;25.42;12.82;;;;;;;;;;5246489;22;20014;-81
2024/01/30 03:10:20;;;;;;;24.67;12.68;;;;;;;;;;5247254;22;20068;-82
2024/01/30 03:12:21;;;;;;;24.65;11.20;;;;;;;;;;5247252;22;20019;-81
2024/01/30 03:14:22;;;;;;;20.42;11.65;;;;;;;;;;5246678;22;20019;-81
2024/01/30 03:16:23;;;;;;;17.50;10.82;;;;;;;;;;5246016;22;20090;-81
2024/01/30 03:18:25;;;;;;;18.92;11.32;;;;;;;;;;5246744;22;20019;-82
2024/01/30 03:20:26;;;;;;;26.38;11.15;;;;;;;;;;5246614;22;20011;-81
2024/01/30 03:22:28;;;;;;;22.48;11.25;;;;;;;;;;5245695;22;20026;-81
2024/01/30 03:24:29;;;;;;;20.80;10.90;;;;;;;;;;5246087;22;20098;-81
2024/01/30 03:26:30;;;;;;;20.55;11.43;;;;;;;;;;5246230;22;20023;-81
2024/01/30 03:28:31;;;;;;;21.35;10.52;;;;;;;;;;5246537;22;20033;-82
2024/01/30 03:30:35;;;;;;;22.63;10.27;;;;;;;;;;5258117;22;20014;-80
2024/01/30 03:32:37;;;;;;;22.85;11.27;;;;;;;;;;5237271;22;20037;-80
2024/01/30 03:34:38;;;;;;;20.23;10.45;;;;;;;;;;5263354;22;20040;-81
2024/01/30 03:36:39;;;;;;;19.30;9.98;;;;;;;;;;5264152;22;20022;-81
2024/01/30 03:38:41;;;;;;;20.65;10.63;;;;;;;;;;5263630;22;20445;-81
2024/01/30 03:40:43;;;;;;;18.88;10.85;;;;;;;;;;5248653;22;20015;-81
2024/01/30 03:42:44;;;;;;;20.65;10.32;;;;;;;;;;5247506;22;20445;-81
2024/01/30 03:44:45;;;;;;;20.25;10.50;;;;;;;;;;5219313;22;20023;-81
2024/01/30 03:46:46;;;;;;;22.55;10.63;;;;;;;;;;5247814;22;20437;-81
2024/01/30 03:48:47;;;;;;;21.80;11.10;;;;;;;;;;5247109;22;20018;-82
2024/01/30 03:50:49;;;;;;;19.05;10.65;;;;;;;;;;5247305;22;20054;-81
2024/01/30 03:52:51;;;;;;;19.20;10.35;;;;;;;;;;5219266;22;20027;-81
2024/01/30 03:54:52;;;;;;;24.25;11.05;;;;;;;;;;5246802;22;20015;-81
2024/01/30 03:56:53;;;;;;;23.65;11.75;;;;;;;;;;5246264;22;20015;-81
2024/01/30 03:58:55;;;;;;;18.05;9.73;;;;;;;;;;5219415;22;20015;-81
2024/01/30 04:00:57;;;;;;;20.50;11.25;;;;;;;;;;5246865;22;20022;-81
2024/01/30 04:02:58;;;;;;;20.65;11.15;;;;;;;;;;5219142;22;20029;-81
2024/01/30 04:04:59;;;;;;;20.75;11.25;;;;;;;;;;5247204;22;20433;-81
2024/01/30 04:07:00;;;;;;;21.58;10.95;;;;;;;;;;5246474;22;20018;-81
2024/01/30 04:09:01;;;;;;;22.63;10.63;;;;;;;;;;5245590;22;20054;-81
2024/01/30 04:11:06;;;;;;;20.98;10.80;;;;;;;;;;5246855;22;20011;-81
2024/01/30 04:13:07;;;;;;;19.77;11.10;;;;;;;;;;5246750;22;20391;-81
2024/01/30 04:15:08;;;;;;;18.73;10.30;;;;;;;;;;5246753;22;20014;-81
2024/01/30 04:17:09;;;;;;;21.77;10.57;;;;;;;;;;5246757;22;20498;-81
2024/01/30 04:19:10;;;;;;;17.70;10.68;;;;;;;;;;5246297;22;20040;-81
2024/01/30 04:21:11;;;;;;;24.73;11.05;;;;;;;;;;5246272;22;20025;-81
2024/01/30 04:23:13;;;;;;;20.45;10.32;;;;;;;;;;5246335;22;20052;-81
2024/01/30 04:25:14;;;;;;;16.45;10.43;;;;;;;;;;5219089;22;20015;-81
2024/01/30 04:27:16;;;;;;;23.50;10.38;;;;;;;;;;5246111;22;20011;-81
2024/01/30 04:29:17;;;;;;;18.98;10.93;;;;;;;;;;5247018;22;20019;-81
2024/01/30 04:31:19;;;;;;;22.48;10.57;;;;;;;;;;5246303;22;20067;-82
2024/01/30 04:33:20;;;;;;;17.23;9.75;;;;;;;;;;5246448;22;20338;-81
2024/01/30 04:35:24;;;;;;;17.63;10.10;;;;;;;;;;5247088;22;20019;-81
2024/01/30 04:37:26;;;;;;;20.90;9.98;;;;;;;;;;5218868;22;20039;-81
2024/01/30 04:39:27;;;;;;;16.23;10.00;;;;;;;;;;5246511;22;20011;-82
2024/01/30 04:41:31;;;;;;;14.77;9.38;;;;;;;;;;5245716;22;20011;-82
2024/01/30 04:43:32;;;;;;;21.38;9.82;;;;;;;;;;5245878;22;20046;-81
2024/01/30 04:45:34;;;;;;;16.95;9.98;;;;;;;;;;5245828;22;20015;-81
2024/01/30 04:47:35;;;;;;;18.83;10.35;;;;;;;;;;5246726;22;20011;-81
2024/01/30 04:49:37;;;;;;;17.90;9.80;;;;;;;;;;5245940;22;20014;-81
2024/01/30 04:51:38;;;;;;;15.35;9.13;;;;;;;;;;5218900;22;20046;-81
2024/01/30 04:53:39;;;;;;;19.02;9.57;;;;;;;;;;5246444;22;20064;-81
2024/01/30 04:55:40;;;;;;;15.95;7.80;;;;;;;;;;5246841;22;20019;-81
2024/01/30 04:57:41;;;;;;;15.88;9.02;;;;;;;;;;5218603;22;20072;-81
2024/01/30 04:59:42;;;;;;;19.00;9.60;;;;;;;;;;5246042;22;20011;-81
2024/01/30 05:01:43;;;;;;;17.77;9.48;;;;;;;;;;5246071;22;20337;-81
2024/01/30 05:03:44;;;;;;;17.23;9.27;;;;;;;;;;5192669;22;20038;-81
2024/01/30 05:05:45;;;;;;;17.30;9.05;;;;;;;;;;5246212;22;20069;-81
2024/01/30 05:07:46;;;;;;;15.80;8.82;;;;;;;;;;5246004;22;20086;-81
2024/01/30 05:09:48;;;;;;;13.52;7.68;;;;;;;;;;5246348;22;20015;-81
2024/01/30 05:11:49;;;;;;;17.25;8.18;;;;;;;;;;5245939;22;20014;-81
2024/01/30 05:13:50;;;;;;;18.17;8.35;;;;;;;;;;5246035;22;20090;-82
2024/01/30 05:15:51;;;;;;;15.00;8.93;;;;;;;;;;5246130;22;20055;-81
2024/01/30 05:17:52;;;;;;;19.73;8.02;;;;;;;;;;5246008;22;20026;-82
2024/01/30 05:19:54;;;;;;;15.05;8.23;;;;;;;;;;5245685;22;20021;-81
2024/01/30 05:21:55;;;;;;;13.43;8.45;;;;;;;;;;5245549;22;20019;-81
2024/01/30 05:23:56;;;;;;;13.48;8.10;;;;;;;;;;5245789;22;20080;-82
2024/01/30 05:25:57;;;;;;;16.33;8.60;;;;;;;;;;5246168;22;20026;-82
2024/01/30 05:27:58;;;;;;;17.40;8.65;;;;;;;;;;5246312;22;20111;-82
2024/01/30 05:29:59;;;;;;;15.80;8.88;;;;;;;;;;5218894;22;20016;-82
2024/01/30 05:32:00;;;;;;;14.40;8.52;;;;;;;;;;5218295;22;20095;-81
2024/01/30 05:34:02;;;;;;;17.10;8.00;;;;;;;;;;5246436;22;20021;-82
2024/01/30 05:36:04;;;;;;;17.00;9.13;;;;;;;;;;5245766;22;20515;-82
2024/01/30 05:38:05;;;;;;;14.18;8.18;;;;;;;;;;5246455;22;20018;-81
2024/01/30 05:40:06;;;;;;;17.05;8.63;;;;;;;;;;5245795;22;20015;-82
2024/01/30 05:42:07;;;;;;;13.60;8.10;;;;;;;;;;5245996;22;20123;-81
2024/01/30 05:44:09;;;;;;;18.70;8.85;;;;;;;;;;5245292;22;20017;-81
2024/01/30 05:46:10;;;;;;;14.75;8.23;;;;;;;;;;5245441;22;20015;-81
2024/01/30 05:48:11;;;;;;;14.73;8.38;;;;;;;;;;5245854;22;20010;-81
2024/01/30 05:50:12;;;;;;;15.68;8.85;;;;;;;;;;5245690;22;20459;-81
2024/01/30 05:52:15;;;;;;;19.50;7.88;;;;;;;;;;5246215;22;20015;-81
2024/01/30 05:54:17;;;;;;;12.50;7.88;;;;;;;;;;5246592;22;20349;-81
2024/01/30 05:56:18;;;;;;;14.95;8.63;;;;;;;;;;5246648;22;20018;-81
2024/01/30 05:58:19;;;;;;;16.95;8.98;;;;;;;;;;5247129;22;20017;-82
2024/01/30 06:00:20;;;;;;;18.17;8.00;;;;;;;;;;5247600;22;20030;-82
2024/01/30 06:02:21;;;;;;;17.58;8.88;;;;;;;;;;5219516;22;20030;-81
2024/01/30 06:04:22;;;;;;;15.77;8.95;;;;;;;;;;5246683;22;20498;-81
2024/01/30 06:06:23;;;;;;;15.68;8.02;;;;;;;;;;5246434;22;20054;-81
2024/01/30 06:08:24;;;;;;;16.75;8.25;;;;;;;;;;5246611;22;20015;-81
2024/01/30 06:10:26;;;;;;;15.25;8.38;;;;;;;;;;5246308;22;20019;-82
2024/01/30 06:12:28;;;;;;;19.25;7.95;;;;;;;;;;5218993;22;20027;-82
2024/01/30 06:14:29;;;;;;;17.08;9.68;;;;;;;;;;5246197;22;20019;-81
2024/01/30 06:16:30;;;;;;;16.40;9.13;;;;;;;;;;5246194;22;20054;-81
2024/01/30 06:18:31;;;;;;;18.75;9.13;;;;;;;;;;5247368;22;20015;-81
2024/01/30 06:20:32;;;;;;;19.17;8.68;;;;;;;;;;5247235;22;20022;-81
2024/01/30 06:22:33;;;;;;;17.08;7.85;;;;;;;;;;5246089;22;20064;-81
2024/01/30 06:24:34;;;;;;;18.80;9.00;;;;;;;;;;5218755;22;20021;-81
2024/01/30 06:26:36;;;;;;;14.55;7.15;;;;;;;;;;5245755;22;20057;-82
2024/01/30 06:28:37;;;;;;;15.93;8.63;;;;;;;;;;5219396;22;20474;-82
2024/01/30 06:30:38;;;;;;;14.60;7.22;;;;;;;;;;5246294;22;20501;-81
2024/01/30 06:32:39;;;;;;;16.27;8.43;;;;;;;;;;5246456;22;20089;-81
2024/01/30 06:34:41;;;;;;;15.20;8.15;;;;;;;;;;5245640;22;20026;-81
2024/01/30 06:36:43;;;;;;;14.05;7.70;;;;;;;;;;5246277;22;20015;-81
2024/01/30 06:38:45;;;;;;;15.50;8.05;;;;;;;;;;5246999;22;20057;-81
2024/01/30 06:40:46;;;;;;;16.45;8.00;;;;;;;;;;5246553;22;20019;-81
2024/01/30 06:42:47;;;;;;;12.45;7.25;;;;;;;;;;5247227;22;20011;-81
2024/01/30 06:44:48;;;;;;;15.38;8.25;;;;;;;;;;5218661;22;20016;-82
2024/01/30 06:46:49;;;;;;;13.05;7.15;;;;;;;;;;5245885;22;20026;-82
2024/01/30 06:48:50;;;;;;;15.27;8.00;;;;;;;;;;5246051;22;20026;-81
2024/01/30 06:50:54;;;;;;;13.88;7.95;;;;;;;;;;5246257;22;20492;-81
2024/01/30 06:52:55;;;;;;;14.23;8.40;;;;;;;;;;5246503;22;20086;-81
2024/01/30 06:54:56;;;;;;;15.30;8.45;;;;;;;;;;5246113;22;20015;-81
2024/01/30 06:56:57;;;;;;;15.07;7.88;;;;;;;;;;5246008;22;20437;-81
2024/01/30 06:58:59;;;;;;;14.77;8.10;;;;;;;;;;5218782;22;20015;-81
2024/01/30 07:01:00;;;;;;;15.65;7.53;;;;;;;;;;5218694;22;20054;-81
2024/01/30 07:03:01;;;;;;;19.02;7.63;;;;;;;;;;5246044;22;20010;-81
2024/01/30 07:05:03;;;;;;;18.08;7.63;;;;;;;;;;5245721;22;20019;-81
2024/01/30 07:07:05;;;;;;;14.00;7.47;;;;;;;;;;5246055;22;20022;-82
2024/01/30 07:09:06;;;;;;;15.98;7.90;;;;;;;;;;5217989;22;20543;-81
2024/01/30 07:11:07;;;;;;;14.20;7.80;;;;;;;;;;5245836;22;20046;-81
2024/01/30 07:13:09;;;;;;;16.67;7.38;;;;;;;;;;5218807;22;20019;-81
2024/01/30 07:15:11;;;;;;;14.95;7.93;;;;;;;;;;5247246;22;20019;-81
2024/01/30 07:17:12;;;;;;;15.85;6.70;;;;;;;;;;5246713;22;20050;-81
2024/01/30 07:19:13;;;;;;;15.77;7.22;;;;;;;;;;5245677;22;20019;-81
2024/01/30 07:21:14;;;;;;;16.27;7.88;;;;;;;;;;5245560;22;20604;-81
2024/01/30 07:23:17;;;;;;;14.93;7.65;;;;;;;;;;5245155;22;20015;-81
2024/01/30 07:25:18;;;;;;;15.20;7.85;;;;;;;;;;5245833;22;20019;-81
2024/01/30 07:27:21;;;;;;;12.90;7.60;;;;;;;;;;5246198;22;20390;-81
2024/01/30 07:29:22;;;;;;;17.75;8.20;;;;;;;;;;5246006;22;20011;-81
2024/01/30 07:31:23;;;;;;;14.18;7.90;;;;;;;;;;5217508;22;20517;-81
2024/01/30 07:33:25;;;;;;;12.63;7.35;;;;;;;;;;5217923;22;20019;-81
2024/01/30 07:35:26;;;;;;;15.65;7.93;;;;;;;;;;5217973;22;20090;-81
2024/01/30 07:37:28;;;;;;;13.32;7.22;;;;;;;;;;5245537;22;20015;-81
2024/01/30 07:39:29;;;;;;;13.43;8.10;;;;;;;;;;5217689;22;20090;-81
2024/01/30 07:41:30;;;;;;;13.55;7.50;;;;;;;;;;5245726;22;20362;-81
2024/01/30 07:43:32;;;;;;;13.60;6.88;;;;;;;;;;5245894;22;20022;-81
2024/01/30 07:45:33;;;;;;;14.35;8.30;;;;;;;;;;5245541;22;20021;-82
2024/01/30 07:47:34;;;;;;;14.05;7.03;;;;;;;;;;5245860;22;20015;-81
2024/01/30 07:49:35;;;;;;;19.95;8.10;;;;;;;;;;5244703;22;20049;-81
2024/01/30 07:51:36;;;;;;;13.63;7.43;;;;;;;;;;5245731;22;20014;-81
2024/01/30 07:53:37;;;;;;;13.02;7.25;;;;;;;;;;5245583;22;20323;-81
2024/01/30 07:55:39;;;;;;;12.85;7.38;;;;;;;;;;5245954;22;20015;-81
2024/01/30 07:57:40;;;;;;;17.92;7.60;;;;;;;;;;5245253;22;20022;-81
2024/01/30 07:59:44;;;;;;;17.02;7.28;;;;;;;;;;5244813;22;20042;-81
2024/01/30 08:01:45;;;;;;;18.20;7.82;;;;;;;;;;5245680;22;20408;-81
2024/01/30 08:03:46;;;;;;;19.48;8.43;;;;;;;;;;5246034;22;20040;-81
2024/01/30 08:05:47;;;;;;;15.27;7.05;;;;;;;;;;5245784;22;20019;-81
2024/01/30 08:07:49;;;;;;;12.98;7.05;;;;;;;;;;5245541;22;20022;-81
2024/01/30 08:09:51;;;;;;;11.63;6.80;;;;;;;;;;5245646;22;20019;-81
2024/01/30 08:11:52;;;;;;;15.52;7.38;;;;;;;;;;5217762;22;20038;-81
2024/01/30 08:13:53;;;;;;;15.23;7.55;;;;;;;;;;5244870;22;20491;-80
2024/01/30 08:15:54;;;;;;;17.38;8.30;;;;;;;;;;5244847;22;20014;-81
2024/01/30 08:17:57;;;;;;;15.18;7.13;;;;;;;;;;5217755;22;20050;-80
2024/01/30 08:19:58;;;;;;;16.77;8.93;;;;;;;;;;5246067;22;20148;-81
2024/01/30 08:22:00;;;;;;;12.73;7.00;;;;;;;;;;5244570;22;20011;-79
2024/01/30 08:24:01;;;;;;;21.30;7.10;;;;;;;;;;5245471;22;20029;-79
2024/01/30 08:26:02;;;;;;;18.60;9.45;;;;;;;;;;5218757;22;20020;-80
2024/01/30 08:28:04;;;;;;;13.85;7.22;;;;;;;;;;5246483;22;20026;-79
2024/01/30 08:30:06;;;;;;;12.00;6.97;;;;;;;;;;5246739;22;20437;-79
2024/01/30 08:32:07;;;;;;;18.58;7.68;;;;;;;;;;5218376;22;20479;-80
2024/01/30 08:34:08;;;;;;;17.88;8.55;;;;;;;;;;5245905;22;20064;-81
2024/01/30 08:36:09;;;;;;;13.65;7.00;;;;;;;;;;5217491;22;20307;-81
2024/01/30 08:38:12;;;;;;;17.95;7.82;;;;;;;;;;5217262;22;20019;-80
2024/01/30 08:40:14;;;;;;;14.90;6.55;;;;;;;;;;5245367;22;20094;-79
2024/01/30 08:42:18;;;;;;;11.98;6.97;;;;;;;;;;5244932;22;20017;-80
2024/01/30 08:44:19;;;;;;;12.57;7.22;;;;;;;;;;5244145;22;20025;-81
2024/01/30 08:46:20;;;;;;;11.18;6.00;;;;;;;;;;5244282;22;20098;-81
2024/01/30 08:48:22;;;;;;;15.00;6.90;;;;;;;;;;5244493;22;20318;-81
2024/01/30 08:50:23;;;;;;;13.02;7.40;;;;;;;;;;5217283;22;20019;-81
2024/01/30 08:52:30;;;;;;;14.95;6.70;;;;;;;;;;5245702;22;20030;-81
2024/01/30 08:54:34;;;;;;;14.45;6.28;;;;;;;;;;5246017;22;20022;-82
2024/01/30 08:56:36;;;;;;;13.13;6.78;;;;;;;;;;5245118;22;20015;-80
2024/01/30 08:58:37;;;;;;;15.82;6.82;;;;;;;;;;5244290;22;20011;-80
2024/01/30 09:00:38;;;;;;;18.13;7.60;;;;;;;;;;5244753;22;20442;-81
2024/01/30 09:02:39;;;;;;;17.83;7.30;;;;;;;;;;5245300;22;20011;-81
2024/01/30 09:04:40;;;;;;;13.75;7.18;;;;;;;;;;5243134;22;20049;-81
2024/01/30 09:06:42;;;;;;;11.23;6.43;;;;;;;;;;5243341;22;20449;-81
2024/01/30 09:08:43;;;;;;;15.32;8.10;;;;;;;;;;5242708;22;20019;-80
2024/01/30 09:10:45;;;;;;;13.45;6.68;;;;;;;;;;5243090;22;20022;-80
2024/01/30 09:12:47;;;;;;;13.32;6.57;;;;;;;;;;5243266;22;20513;-80
2024/01/30 09:14:48;;;;;;;13.57;6.70;;;;;;;;;;5243549;22;20014;-80
2024/01/30 09:16:49;;;;;;;13.55;7.03;;;;;;;;;;5243954;22;20015;-80
2024/01/30 09:18:50;;;;;;;11.25;6.97;;;;;;;;;;5243791;22;20015;-80
2024/01/30 09:20:51;;;;;;;11.48;6.85;;;;;;;;;;5244749;22;20022;-80
2024/01/30 09:22:52;;;;;;;13.57;7.25;;;;;;;;;;5244588;22;20015;-80
2024/01/30 09:24:53;;;;;;;12.10;6.80;;;;;;;;;;5244264;22;20015;-80
2024/01/30 09:26:54;;;;;;;14.10;6.68;;;;;;;;;;5244856;22;20352;-80
2024/01/30 09:28:55;;;;;;;16.80;7.35;;;;;;;;;;5246497;22;20030;-80
2024/01/30 09:30:56;;;;;;;13.35;6.80;;;;;;;;;;5245809;22;20015;-80
2024/01/30 09:32:57;;;;;;;13.90;7.38;;;;;;;;;;5246257;22;20050;-80
2024/01/30 09:34:58;;;;;;;15.68;7.68;;;;;;;;;;5246411;22;20018;-80
2024/01/30 09:37:00;;;;;;;17.70;7.57;;;;;;;;;;5246214;22;20382;-80
2024/01/30 09:39:01;;;;;;;13.75;6.65;;;;;;;;;;5218796;22;20086;-80
2024/01/30 09:41:06;;;;;;;15.55;7.30;;;;;;;;;;5246122;22;20341;-80
2024/01/30 09:43:08;;;;;;;14.27;6.43;;;;;;;;;;5246262;22;20018;-81
2024/01/30 09:45:10;;;;;;;16.23;7.20;;;;;;;;;;5245366;22;20015;-80
2024/01/30 09:47:11;;;;;;;16.30;6.13;;;;;;;;;;5246118;22;20022;-80
2024/01/30 09:49:12;;;;;;;12.93;6.75;;;;;;;;;;5245944;22;20022;-80
2024/01/30 09:51:15;;;;;;;13.63;7.78;;;;;;;;;;5218479;22;20519;-80
2024/01/30 09:53:17;;;;;;;14.70;7.13;;;;;;;;;;5193226;22;20096;-80
2024/01/30 09:55:19;;;;;;;15.23;6.28;;;;;;;;;;5247212;22;20019;-80
2024/01/30 09:57:20;;;;;;;15.20;7.47;;;;;;;;;;5246107;22;20021;-80
2024/01/30 09:59:22;;;;;;;14.00;7.35;;;;;;;;;;5247307;22;20045;-80
2024/01/30 10:01:24;;;;;;;17.23;7.35;;;;;;;;;;5246997;22;20025;-80
2024/01/30 10:03:25;;;;;;;16.55;7.03;;;;;;;;;;5246668;22;20046;-80
2024/01/30 10:05:34;;;;;;;19.63;6.85;;;;;;;;;;5247044;22;20010;-79
2024/01/30 10:07:35;;;;;;;22.73;7.88;;;;;;;;;;5245866;22;20345;-80
2024/01/30 10:09:37;;;;;;;13.70;6.85;;;;;;;;;;5247112;22;20094;-80
2024/01/30 10:11:38;;;;;;;12.75;5.90;;;;;;;;;;5250048;22;20019;-80
2024/01/30 10:13:40;;;;;;;13.73;7.38;;;;;;;;;;5250131;22;20026;-80
2024/01/30 10:15:41;;;;;;;16.73;6.25;;;;;;;;;;5249567;22;20023;-79
2024/01/30 10:17:42;;;;;;;13.23;6.47;;;;;;;;;;5249552;22;20026;-79
2024/01/30 10:19:44;;;;;;;18.08;6.28;;;;;;;;;;5249851;22;20026;-79
2024/01/30 10:21:46;;;;;;;15.25;7.80;;;;;;;;;;5248898;22;20050;-80
2024/01/30 10:23:47;;;;;;;13.82;6.75;;;;;;;;;;5247152;22;20384;-79
2024/01/30 10:25:48;;;;;;;15.55;7.63;;;;;;;;;;5247217;22;20015;-81
2024/01/30 10:27:55;;;;;;;14.77;7.20;;;;;;;;;;5249816;22;20022;-80
2024/01/30 10:29:56;;;;;;;13.32;6.68;;;;;;;;;;5248992;22;20128;-80
2024/01/30 10:32:04;;;;;;;13.68;6.65;;;;;;;;;;5245146;22;20010;-80
2024/01/30 10:34:05;;;;;;;12.88;6.55;;;;;;;;;;5246568;22;20086;-80
2024/01/30 10:36:06;;;;;;;16.40;7.13;;;;;;;;;;5245525;22;20065;-80
2024/01/30 10:38:12;;;;;;;12.48;6.65;;;;;;;;;;5246356;22;20025;-79
2024/01/30 10:40:15;;;;;;;14.50;7.32;;;;;;;;;;5246392;22;20014;-79
2024/01/30 10:42:18;;;;;;;13.60;7.43;;;;;;;;;;5245570;22;20426;-80
2024/01/30 10:44:20;;;;;;;12.07;6.85;;;;;;;;;;5247079;22;20021;-80
2024/01/30 10:46:23;;;;;;;13.30;7.25;;;;;;;;;;5246445;22;20015;-80
2024/01/30 10:48:30;;;;;;;19.17;7.47;;;;;;;;;;5246862;22;20019;-80
2024/01/30 10:50:33;;;;;;;12.48;7.15;;;;;;;;;;5246615;22;20014;-79
2024/01/30 10:52:35;;;;;;;12.23;6.78;;;;;;;;;;5246715;22;20441;-79
2024/01/30 10:54:37;;;;;;;15.20;7.03;;;;;;;;;;5245588;22;20015;-79
2024/01/30 10:56:39;;;;;;;14.73;7.05;;;;;;;;;;5246341;22;20010;-79
2024/01/30 10:58:40;;;;;;;17.30;7.28;;;;;;;;;;5246442;22;20479;-79
2024/01/30 11:00:41;;;;;;;17.48;6.57;;;;;;;;;;5246480;22;20014;-79
2024/01/30 11:02:43;;;;;;;14.77;6.80;;;;;;;;;;5245698;22;20044;-79
2024/01/30 11:04:46;;;;;;;13.50;7.38;;;;;;;;;;5244823;22;20019;-79
2024/01/30 11:06:50;;;;;;;18.08;7.15;;;;;;;;;;5246015;22;20393;-80
2024/01/30 11:09:07;;;;;;;14.73;6.47;;;;;;;;;;5246741;22;20018;-78
2024/01/30 11:11:10;;;;;;;18.48;6.72;;;;;;;;;;5246448;22;20318;-78
2024/01/30 11:13:13;;;;;;;15.07;6.30;;;;;;;;;;5219165;22;20426;-78
2024/01/30 11:15:15;;;;;;;12.25;6.47;;;;;;;;;;5246316;22;20018;-79
2024/01/30 11:17:17;;;;;;;15.68;6.32;;;;;;;;;;5245232;22;20015;-79
2024/01/30 11:19:25;;;;;;;13.82;6.13;;;;;;;;;;5245648;22;20437;-78
2024/01/30 11:21:26;;;;;;;10.23;5.57;;;;;;;;;;5246297;22;20027;-79
2024/01/30 11:23:31;;;;;;;14.32;5.22;;;;;;;;;;5246225;22;20015;-79
2024/01/30 11:25:33;;;;;;;15.35;6.28;;;;;;;;;;5245587;22;20019;-79
2024/01/30 11:27:34;;;;;;;10.95;5.43;;;;;;;;;;5246226;22;20010;-79
2024/01/30 11:29:35;;;;;;;12.90;6.00;;;;;;;;;;5246816;22;20011;-80
2024/01/30 11:31:37;;;;;;;14.85;6.22;;;;;;;;;;5246366;22;20068;-79
2024/01/30 11:33:38;;;;;;;13.93;5.80;;;;;;;;;;5246098;22;20055;-80
2024/01/30 11:35:40;;;;;;;11.98;5.70;;;;;;;;;;5245796;22;20079;-79
2024/01/30 11:37:42;;;;;;;13.88;5.72;;;;;;;;;;5245548;22;20053;-80
2024/01/30 11:39:43;;;;;;;10.02;5.18;;;;;;;;;;5246042;22;20015;-79
2024/01/30 11:41:46;;;;;;;11.07;4.13;;;;;;;;;;5245761;22;20021;-79
2024/01/30 11:43:53;;;;;;;12.50;5.25;;;;;;;;;;5245420;22;20019;-79
2024/01/30 11:45:54;;;;;;;11.18;4.22;;;;;;;;;;5217391;22;20016;-79
2024/01/30 11:47:56;;;;;;;8.60;3.65;;;;;;;;;;5245487;22;20022;-79
2024/01/30 11:49:57;;;;;;;10.55;3.72;;;;;;;;;;5217010;22;20038;-79
2024/01/30 11:51:58;;;;;;;20.73;4.53;;;;;;;;;;5217780;22;20053;-79
2024/01/30 11:53:59;;;;;;;10.27;3.50;;;;;;;;;;5245199;22;20023;-80
2024/01/30 11:56:00;;;;;;;8.15;3.22;;;;;;;;;;5245218;22;20019;-79